Pagrindinis puslapis
METAR-TAF:

METAR-TAF

Oro uostai :

Narathivatas, Tailandas

platuma: 6-31-12N, ilguma: 101-44-36E, Aukštis: 5 m

Dabartinis oras

Ataskaita buvo paskelbta 12 valandos ir 0 minutes, ne 10:00 UTC
Vėjas 10 kt iš Rytų/Pietryčių, svyruoja nuo Rytų ir Pietų/Pietryčių
Temperatūra 30°C
Drėgmė 70%
Slėgis 1009 hPa
Matomumas 10 km arba daugiau
Mažai debesys ne aukštis 2000 ft

METAR: VTSC 121000Z 12010KT 090V150 9999 FEW020 30/24 Q1009 NOSIG

Laikas: 05:00 (22:00 UTC)

Prognozė

Ataskaita buvo paskelbta 5 valandos ir 0 minutes, ne 17:00 UTC
Prognozė galioja nuo 12 metu 18 UTC su 13 metu 18 UTC
Vėjas 5 kt iš Pietų
Matomumas 10 km arba daugiau
Mažai debesys ne aukštis 2000 ft
Laikinai
nuo 13 metu 03 UTC su 13 metu 09 UTC
Matomumas: 4000 m
Mažai debesys ne aukštis 1600 ft, Liūtiniai kamuoliniai debesys.
Išsisklaidę debesys ne aukštis 1800 ft
Su prošvaistėmis ne aukštis 10000 ft
perkūnija, lietus

TAF: VTSC 121700Z 1218/1318 19005KT 9999 FEW020 TEMPO 1303/1309 4000 TSRA FEW016CB SCT018 BKN100

Orai ataskaitas ir orų prognozės (METAR, TAF).

turimą stotys yra geltonos ir raudonos taškus žemėlapyje.

Perkelti pele per norėdami pamatyti stoties vardą.

Tada spustelėkite, norėdami matyti oro stebėjimo ir prognozės.

Norėdami pakeisti žemėlapį: spustelėkite ant žalios mygtukų su juodo kryžiaus žemyn,; žalią mygtuką su brūkšneliu, jei norite nutolinti; arba žalių rodyklių gretimoms žemėlapius.


METAR-TAF: